Hazardville, Connecticut
Current Conditions -  °F | °C
As of 6:51 AM on Thursday 18 Dec 2014 (Local Time) from KBDL Reporting Station
Overcast Overcast  
Wind Chill: 30°   Ceiling: 3200
Heat Index: 37°   Visibility: 10mi
Dew Point: 27°   Wind: 10mph
Humidity: 67%   Direction: 290°WNW
Pressure: 29.83"   Gusts: 17mph
Location:  41.9843°N, 72.5534°W
Report Text: KBDL 181151Z 29009G15KT 10SM BKN032 OVC070 03/M03 A2983 RMK AO2 SLP103 60000 T00281028 10044 20028 53012
Loading
Personal Weather Stations






























Interactive Weather Map New forecast layout! Learn more

10-Day Weather Forecast

Advertisements
Track Severe Weather on mobile